Goostrey, United Kingdom
Current Conditions -  °F | °C
As of 8:50 AM on Saturday 22 Nov 2014 (Local Time) from EGCC Reporting Station
Haze Haze  
Wind Chill: 54°   Ceiling: Unl
Heat Index: 54°   Visibility: 2.8mi
Dew Point: 54°   Wind: 8mph
Humidity: 100%   Direction: 190°S
Pressure: 29.8"   Gusts: NA
Location:  53.23°N, 2.34°W
Report Text: EGCC 220850Z 19007KT 4500 BR FEW006 SCT012 12/12 Q1009
Loading
Personal Weather Stations






























Interactive Weather Map New forecast layout! Learn more

10-Day Weather Forecast

Advertisements
Track Severe Weather on mobile